Satellite Precipitation Estimates (TXUS20 KWBC)
Issued by NWS

Home | Current Version | Previous Version | Text Only | Print | Product List | Glossary On
Versions: 1
000
SPTD31 TTPP 230424
SPECI
TTCP 230420Z 09014KT 3000 SHRA BKN014 SCT038 26/23 Q1013 NOSIG=



USA.gov is the U.S. government's official web portal to all federal, state and local government web resources and services.